sensor_id;sensor_type;location;lat;lon;timestamp;P1;durP1;ratioP1;P2;durP2;ratioP2
61385;SDS011;47256;18.904;-99.054;2023-04-06T00:01:43;11.23;;;4.68;;
61385;SDS011;47256;18.904;-99.054;2023-04-06T00:04:11;9.27;;;4.40;;
61385;SDS011;47256;18.904;-99.054;2023-04-06T00:06:39;13.05;;;4.88;;
61385;SDS011;47256;18.904;-99.054;2023-04-06T00:09:07;9.38;;;4.60;;
61385;SDS011;47256;18.904;-99.054;2023-04-06T00:11:34;11.00;;;4.63;;
61385;SDS011;47256;18.904;-99.054;2023-04-06T00:14:01;11.20;;;4.82;;
61385;SDS011;47256;18.904;-99.054;2023-04-06T00:16:29;15.38;;;5.68;;
61385;SDS011;47256;18.904;-99.054;2023-04-06T00:18:56;17.20;;;6.75;;
61385;SDS011;47256;18.904;-99.054;2023-04-06T00:21:23;17.15;;;5.90;;
61385;SDS011;47256;18.904;-99.054;2023-04-06T00:23:51;10.48;;;5.88;;
61385;SDS011;47256;18.904;-99.054;2023-04-06T00:26:19;12.77;;;6.30;;
61385;SDS011;47256;18.904;-99.054;2023-04-06T00:28:46;15.55;;;6.47;;
61385;SDS011;47256;18.904;-99.054;2023-04-06T00:31:16;25.45;;;7.05;;
61385;SDS011;47256;18.904;-99.054;2023-04-06T00:33:43;16.65;;;6.97;;
61385;SDS011;47256;18.904;-99.054;2023-04-06T00:36:10;17.52;;;5.63;;
61385;SDS011;47256;18.904;-99.054;2023-04-06T00:38:37;15.85;;;5.97;;
61385;SDS011;47256;18.904;-99.054;2023-04-06T00:41:05;32.92;;;6.53;;
61385;SDS011;47256;18.904;-99.054;2023-04-06T00:43:32;9.25;;;5.75;;
61385;SDS011;47256;18.904;-99.054;2023-04-06T00:45:59;32.80;;;7.85;;
61385;SDS011;47256;18.904;-99.054;2023-04-06T00:48:27;22.52;;;7.47;;
61385;SDS011;47256;18.904;-99.054;2023-04-06T00:50:58;12.50;;;5.50;;
61385;SDS011;47256;18.904;-99.054;2023-04-06T00:53:25;42.88;;;8.13;;
61385;SDS011;47256;18.904;-99.054;2023-04-06T00:55:52;23.33;;;8.50;;
61385;SDS011;47256;18.904;-99.054;2023-04-06T00:58:21;19.23;;;7.65;;
61385;SDS011;47256;18.904;-99.054;2023-04-06T01:00:54;32.22;;;7.38;;
61385;SDS011;47256;18.904;-99.054;2023-04-06T01:03:22;25.67;;;7.82;;
61385;SDS011;47256;18.904;-99.054;2023-04-06T01:05:51;14.25;;;6.97;;
61385;SDS011;47256;18.904;-99.054;2023-04-06T01:08:29;10.25;;;6.80;;
61385;SDS011;47256;18.904;-99.054;2023-04-06T01:11:10;15.07;;;6.65;;
61385;SDS011;47256;18.904;-99.054;2023-04-06T01:13:38;17.58;;;6.03;;
61385;SDS011;47256;18.904;-99.054;2023-04-06T01:16:11;23.35;;;7.63;;
61385;SDS011;47256;18.904;-99.054;2023-04-06T01:18:58;17.23;;;6.60;;
61385;SDS011;47256;18.904;-99.054;2023-04-06T01:21:29;31.60;;;7.75;;
61385;SDS011;47256;18.904;-99.054;2023-04-06T01:24:19;15.10;;;6.40;;
61385;SDS011;47256;18.904;-99.054;2023-04-06T01:27:02;14.95;;;6.85;;
61385;SDS011;47256;18.904;-99.054;2023-04-06T01:29:42;14.80;;;5.72;;
61385;SDS011;47256;18.904;-99.054;2023-04-06T01:32:13;19.88;;;7.95;;
61385;SDS011;47256;18.904;-99.054;2023-04-06T01:34:47;22.38;;;7.82;;
61385;SDS011;47256;18.904;-99.054;2023-04-06T01:37:15;11.55;;;6.80;;
61385;SDS011;47256;18.904;-99.054;2023-04-06T01:39:43;16.70;;;7.35;;
61385;SDS011;47256;18.904;-99.054;2023-04-06T01:42:16;15.00;;;6.28;;
61385;SDS011;47256;18.904;-99.054;2023-04-06T01:44:46;12.25;;;6.80;;
61385;SDS011;47256;18.904;-99.054;2023-04-06T01:47:15;14.80;;;6.43;;
61385;SDS011;47256;18.904;-99.054;2023-04-06T01:49:43;10.23;;;5.18;;
61385;SDS011;47256;18.904;-99.054;2023-04-06T01:52:11;17.17;;;7.35;;
61385;SDS011;47256;18.904;-99.054;2023-04-06T01:54:42;14.07;;;7.13;;
61385;SDS011;47256;18.904;-99.054;2023-04-06T01:57:14;11.52;;;6.25;;
61385;SDS011;47256;18.904;-99.054;2023-04-06T01:59:49;13.70;;;7.18;;
61385;SDS011;47256;18.904;-99.054;2023-04-06T02:02:25;12.63;;;6.20;;
61385;SDS011;47256;18.904;-99.054;2023-04-06T02:04:58;50.40;;;8.27;;
61385;SDS011;47256;18.904;-99.054;2023-04-06T02:07:27;20.15;;;7.63;;
61385;SDS011;47256;18.904;-99.054;2023-04-06T02:09:55;18.63;;;8.55;;
61385;SDS011;47256;18.904;-99.054;2023-04-06T02:12:31;93.53;;;25.63;;
61385;SDS011;47256;18.904;-99.054;2023-04-06T02:14:58;125.72;;;27.92;;
61385;SDS011;47256;18.904;-99.054;2023-04-06T02:17:26;72.18;;;23.35;;
61385;SDS011;47256;18.904;-99.054;2023-04-06T02:19:54;67.28;;;23.05;;
61385;SDS011;47256;18.904;-99.054;2023-04-06T02:22:21;69.03;;;21.25;;
61385;SDS011;47256;18.904;-99.054;2023-04-06T02:24:48;194.18;;;50.08;;
61385;SDS011;47256;18.904;-99.054;2023-04-06T02:27:16;172.13;;;41.80;;
61385;SDS011;47256;18.904;-99.054;2023-04-06T02:29:46;171.18;;;44.08;;
61385;SDS011;47256;18.904;-99.054;2023-04-06T02:32:17;85.38;;;23.10;;
61385;SDS011;47256;18.904;-99.054;2023-04-06T02:34:46;73.28;;;23.83;;
61385;SDS011;47256;18.904;-99.054;2023-04-06T02:37:15;97.50;;;25.40;;
61385;SDS011;47256;18.904;-99.054;2023-04-06T02:39:42;54.53;;;15.43;;
61385;SDS011;47256;18.904;-99.054;2023-04-06T02:42:11;40.63;;;13.73;;
61385;SDS011;47256;18.904;-99.054;2023-04-06T02:44:39;31.50;;;11.23;;
61385;SDS011;47256;18.904;-99.054;2023-04-06T02:47:07;18.60;;;10.23;;
61385;SDS011;47256;18.904;-99.054;2023-04-06T02:49:36;22.42;;;8.40;;
61385;SDS011;47256;18.904;-99.054;2023-04-06T02:52:03;17.95;;;7.30;;
61385;SDS011;47256;18.904;-99.054;2023-04-06T02:54:34;23.25;;;8.43;;
61385;SDS011;47256;18.904;-99.054;2023-04-06T02:57:03;19.23;;;7.68;;
61385;SDS011;47256;18.904;-99.054;2023-04-06T02:59:39;28.33;;;7.90;;
61385;SDS011;47256;18.904;-99.054;2023-04-06T03:02:16;21.77;;;6.72;;
61385;SDS011;47256;18.904;-99.054;2023-04-06T03:04:45;32.95;;;6.88;;
61385;SDS011;47256;18.904;-99.054;2023-04-06T03:07:21;23.73;;;7.63;;
61385;SDS011;47256;18.904;-99.054;2023-04-06T03:09:49;17.23;;;7.38;;
61385;SDS011;47256;18.904;-99.054;2023-04-06T03:12:17;39.42;;;13.50;;
61385;SDS011;47256;18.904;-99.054;2023-04-06T03:15:04;45.78;;;14.25;;
61385;SDS011;47256;18.904;-99.054;2023-04-06T03:17:35;30.80;;;12.45;;
61385;SDS011;47256;18.904;-99.054;2023-04-06T03:20:07;29.85;;;12.50;;
61385;SDS011;47256;18.904;-99.054;2023-04-06T03:22:35;31.90;;;13.18;;
61385;SDS011;47256;18.904;-99.054;2023-04-06T03:25:05;44.47;;;16.13;;
61385;SDS011;47256;18.904;-99.054;2023-04-06T03:27:33;35.97;;;13.68;;
61385;SDS011;47256;18.904;-99.054;2023-04-06T03:30:02;26.17;;;12.20;;
61385;SDS011;47256;18.904;-99.054;2023-04-06T03:32:33;30.88;;;14.02;;
61385;SDS011;47256;18.904;-99.054;2023-04-06T03:35:01;35.28;;;13.45;;
61385;SDS011;47256;18.904;-99.054;2023-04-06T03:37:30;25.80;;;11.55;;
61385;SDS011;47256;18.904;-99.054;2023-04-06T03:40:02;23.60;;;10.35;;
61385;SDS011;47256;18.904;-99.054;2023-04-06T03:42:30;21.08;;;10.38;;
61385;SDS011;47256;18.904;-99.054;2023-04-06T03:45:04;23.30;;;10.18;;
61385;SDS011;47256;18.904;-99.054;2023-04-06T03:47:31;28.77;;;9.32;;
61385;SDS011;47256;18.904;-99.054;2023-04-06T03:50:03;20.88;;;9.35;;
61385;SDS011;47256;18.904;-99.054;2023-04-06T03:52:34;17.55;;;9.23;;
61385;SDS011;47256;18.904;-99.054;2023-04-06T03:55:03;19.48;;;11.35;;
61385;SDS011;47256;18.904;-99.054;2023-04-06T03:57:31;22.83;;;10.68;;
61385;SDS011;47256;18.904;-99.054;2023-04-06T03:59:58;23.85;;;10.68;;
61385;SDS011;47256;18.904;-99.054;2023-04-06T04:02:26;24.75;;;10.45;;
61385;SDS011;47256;18.904;-99.054;2023-04-06T04:04:54;36.10;;;11.98;;
61385;SDS011;47256;18.904;-99.054;2023-04-06T04:07:22;26.83;;;11.25;;
61385;SDS011;47256;18.904;-99.054;2023-04-06T04:09:50;35.45;;;11.88;;
61385;SDS011;47256;18.904;-99.054;2023-04-06T04:12:17;32.80;;;12.35;;
61385;SDS011;47256;18.904;-99.054;2023-04-06T04:14:45;30.55;;;11.80;;
61385;SDS011;47256;18.904;-99.054;2023-04-06T04:17:12;41.67;;;16.83;;
61385;SDS011;47256;18.904;-99.054;2023-04-06T04:19:39;33.00;;;13.57;;
61385;SDS011;47256;18.904;-99.054;2023-04-06T04:22:06;44.45;;;14.75;;
61385;SDS011;47256;18.904;-99.054;2023-04-06T04:24:38;37.83;;;15.93;;
61385;SDS011;47256;18.904;-99.054;2023-04-06T04:27:06;30.10;;;15.90;;
61385;SDS011;47256;18.904;-99.054;2023-04-06T04:29:34;36.88;;;15.55;;
61385;SDS011;47256;18.904;-99.054;2023-04-06T04:32:06;40.92;;;17.00;;
61385;SDS011;47256;18.904;-99.054;2023-04-06T04:34:34;42.00;;;15.48;;
61385;SDS011;47256;18.904;-99.054;2023-04-06T04:37:04;31.52;;;13.43;;
61385;SDS011;47256;18.904;-99.054;2023-04-06T04:39:43;36.60;;;14.95;;
61385;SDS011;47256;18.904;-99.054;2023-04-06T04:42:11;38.47;;;16.08;;
61385;SDS011;47256;18.904;-99.054;2023-04-06T04:44:44;33.72;;;14.10;;
61385;SDS011;47256;18.904;-99.054;2023-04-06T04:47:16;31.40;;;14.57;;
61385;SDS011;47256;18.904;-99.054;2023-04-06T04:49:49;41.33;;;14.30;;
61385;SDS011;47256;18.904;-99.054;2023-04-06T04:52:22;39.85;;;13.80;;
61385;SDS011;47256;18.904;-99.054;2023-04-06T04:55:07;41.88;;;11.90;;
61385;SDS011;47256;18.904;-99.054;2023-04-06T04:57:35;39.15;;;14.63;;
61385;SDS011;47256;18.904;-99.054;2023-04-06T05:00:05;31.02;;;13.23;;
61385;SDS011;47256;18.904;-99.054;2023-04-06T05:02:37;31.02;;;14.27;;
61385;SDS011;47256;18.904;-99.054;2023-04-06T05:05:26;27.35;;;13.63;;
61385;SDS011;47256;18.904;-99.054;2023-04-06T05:07:56;25.73;;;13.05;;
61385;SDS011;47256;18.904;-99.054;2023-04-06T05:10:39;25.45;;;12.10;;
61385;SDS011;47256;18.904;-99.054;2023-04-06T05:13:07;21.38;;;12.27;;
61385;SDS011;47256;18.904;-99.054;2023-04-06T05:15:35;26.33;;;13.05;;
61385;SDS011;47256;18.904;-99.054;2023-04-06T05:18:28;26.50;;;12.95;;
61385;SDS011;47256;18.904;-99.054;2023-04-06T05:20:56;28.67;;;11.13;;
61385;SDS011;47256;18.904;-99.054;2023-04-06T05:23:32;30.80;;;12.25;;
61385;SDS011;47256;18.904;-99.054;2023-04-06T05:26:02;32.28;;;13.05;;
61385;SDS011;47256;18.904;-99.054;2023-04-06T05:28:32;26.63;;;11.13;;
61385;SDS011;47256;18.904;-99.054;2023-04-06T05:31:00;40.35;;;12.57;;
61385;SDS011;47256;18.904;-99.054;2023-04-06T05:33:34;24.73;;;11.63;;
61385;SDS011;47256;18.904;-99.054;2023-04-06T05:36:09;19.35;;;10.20;;
61385;SDS011;47256;18.904;-99.054;2023-04-06T05:38:40;22.58;;;9.45;;
61385;SDS011;47256;18.904;-99.054;2023-04-06T05:41:37;27.25;;;10.85;;
61385;SDS011;47256;18.904;-99.054;2023-04-06T05:44:07;18.70;;;10.00;;
61385;SDS011;47256;18.904;-99.054;2023-04-06T05:46:35;23.85;;;10.15;;
61385;SDS011;47256;18.904;-99.054;2023-04-06T05:49:03;17.88;;;9.05;;
61385;SDS011;47256;18.904;-99.054;2023-04-06T05:51:33;19.90;;;9.07;;
61385;SDS011;47256;18.904;-99.054;2023-04-06T05:54:02;28.33;;;8.65;;
61385;SDS011;47256;18.904;-99.054;2023-04-06T05:56:30;25.83;;;9.25;;
61385;SDS011;47256;18.904;-99.054;2023-04-06T05:58:59;15.65;;;9.32;;
61385;SDS011;47256;18.904;-99.054;2023-04-06T06:01:28;15.65;;;8.15;;
61385;SDS011;47256;18.904;-99.054;2023-04-06T06:03:56;20.00;;;8.30;;
61385;SDS011;47256;18.904;-99.054;2023-04-06T06:06:27;19.55;;;9.63;;
61385;SDS011;47256;18.904;-99.054;2023-04-06T06:09:13;18.10;;;8.60;;
61385;SDS011;47256;18.904;-99.054;2023-04-06T06:14:20;19.73;;;7.70;;
61385;SDS011;47256;18.904;-99.054;2023-04-06T06:16:47;17.92;;;7.25;;
61385;SDS011;47256;18.904;-99.054;2023-04-06T06:19:16;22.20;;;7.32;;
61385;SDS011;47256;18.904;-99.054;2023-04-06T06:21:44;14.82;;;7.15;;
61385;SDS011;47256;18.904;-99.054;2023-04-06T06:24:12;14.25;;;6.18;;
61385;SDS011;47256;18.904;-99.054;2023-04-06T06:26:39;10.38;;;6.88;;
61385;SDS011;47256;18.904;-99.054;2023-04-06T06:29:08;11.45;;;6.47;;
61385;SDS011;47256;18.904;-99.054;2023-04-06T06:31:38;12.73;;;6.55;;
61385;SDS011;47256;18.904;-99.054;2023-04-06T06:34:05;16.58;;;7.75;;
61385;SDS011;47256;18.904;-99.054;2023-04-06T06:36:34;18.05;;;7.22;;
61385;SDS011;47256;18.904;-99.054;2023-04-06T06:39:04;12.40;;;6.10;;
61385;SDS011;47256;18.904;-99.054;2023-04-06T06:41:31;14.98;;;6.13;;
61385;SDS011;47256;18.904;-99.054;2023-04-06T06:43:59;13.05;;;7.57;;
61385;SDS011;47256;18.904;-99.054;2023-04-06T06:46:28;17.25;;;6.20;;
61385;SDS011;47256;18.904;-99.054;2023-04-06T06:48:56;17.05;;;6.72;;
61385;SDS011;47256;18.904;-99.054;2023-04-06T06:51:24;9.77;;;5.80;;
61385;SDS011;47256;18.904;-99.054;2023-04-06T06:53:51;33.03;;;7.63;;
61385;SDS011;47256;18.904;-99.054;2023-04-06T06:56:19;17.98;;;6.97;;
61385;SDS011;47256;18.904;-99.054;2023-04-06T06:58:46;27.23;;;6.55;;
61385;SDS011;47256;18.904;-99.054;2023-04-06T07:01:13;14.13;;;6.20;;
61385;SDS011;47256;18.904;-99.054;2023-04-06T07:03:41;18.33;;;7.72;;
61385;SDS011;47256;18.904;-99.054;2023-04-06T07:06:09;25.70;;;9.55;;
61385;SDS011;47256;18.904;-99.054;2023-04-06T07:08:39;30.15;;;8.55;;
61385;SDS011;47256;18.904;-99.054;2023-04-06T07:11:06;24.00;;;8.77;;
61385;SDS011;47256;18.904;-99.054;2023-04-06T07:13:34;26.02;;;8.50;;
61385;SDS011;47256;18.904;-99.054;2023-04-06T07:16:02;13.50;;;6.43;;
61385;SDS011;47256;18.904;-99.054;2023-04-06T07:18:29;10.85;;;6.00;;
61385;SDS011;47256;18.904;-99.054;2023-04-06T07:20:58;14.23;;;7.25;;
61385;SDS011;47256;18.904;-99.054;2023-04-06T07:23:26;12.40;;;6.15;;
61385;SDS011;47256;18.904;-99.054;2023-04-06T07:25:53;9.23;;;5.82;;
61385;SDS011;47256;18.904;-99.054;2023-04-06T07:28:22;10.27;;;5.90;;
61385;SDS011;47256;18.904;-99.054;2023-04-06T07:30:49;12.38;;;5.97;;
61385;SDS011;47256;18.904;-99.054;2023-04-06T07:33:17;10.00;;;5.90;;
61385;SDS011;47256;18.904;-99.054;2023-04-06T07:35:45;10.93;;;6.13;;
61385;SDS011;47256;18.904;-99.054;2023-04-06T07:38:13;16.17;;;6.13;;
61385;SDS011;47256;18.904;-99.054;2023-04-06T07:40:40;8.55;;;5.47;;
61385;SDS011;47256;18.904;-99.054;2023-04-06T07:43:08;23.23;;;6.68;;
61385;SDS011;47256;18.904;-99.054;2023-04-06T07:45:35;12.05;;;6.57;;
61385;SDS011;47256;18.904;-99.054;2023-04-06T07:48:02;13.98;;;6.88;;
61385;SDS011;47256;18.904;-99.054;2023-04-06T07:50:31;11.57;;;6.38;;
61385;SDS011;47256;18.904;-99.054;2023-04-06T07:52:58;21.63;;;6.57;;
61385;SDS011;47256;18.904;-99.054;2023-04-06T07:55:27;16.08;;;7.10;;
61385;SDS011;47256;18.904;-99.054;2023-04-06T07:57:54;11.20;;;5.90;;
61385;SDS011;47256;18.904;-99.054;2023-04-06T08:00:22;16.02;;;7.15;;
61385;SDS011;47256;18.904;-99.054;2023-04-06T08:02:49;11.65;;;6.07;;
61385;SDS011;47256;18.904;-99.054;2023-04-06T08:05:16;13.35;;;6.38;;
61385;SDS011;47256;18.904;-99.054;2023-04-06T08:07:43;9.15;;;5.60;;
61385;SDS011;47256;18.904;-99.054;2023-04-06T08:10:10;17.33;;;6.35;;
61385;SDS011;47256;18.904;-99.054;2023-04-06T08:12:37;15.95;;;6.25;;
61385;SDS011;47256;18.904;-99.054;2023-04-06T08:15:06;9.40;;;5.75;;
61385;SDS011;47256;18.904;-99.054;2023-04-06T08:17:34;15.77;;;7.50;;
61385;SDS011;47256;18.904;-99.054;2023-04-06T08:20:01;14.75;;;6.85;;
61385;SDS011;47256;18.904;-99.054;2023-04-06T08:22:30;14.07;;;7.25;;
61385;SDS011;47256;18.904;-99.054;2023-04-06T08:24:57;16.60;;;8.15;;
61385;SDS011;47256;18.904;-99.054;2023-04-06T08:27:24;16.98;;;7.13;;
61385;SDS011;47256;18.904;-99.054;2023-04-06T08:29:52;16.92;;;7.35;;
61385;SDS011;47256;18.904;-99.054;2023-04-06T08:32:19;10.63;;;7.15;;
61385;SDS011;47256;18.904;-99.054;2023-04-06T08:34:46;17.13;;;7.20;;
61385;SDS011;47256;18.904;-99.054;2023-04-06T08:37:13;10.95;;;6.72;;
61385;SDS011;47256;18.904;-99.054;2023-04-06T08:39:40;9.75;;;6.45;;
61385;SDS011;47256;18.904;-99.054;2023-04-06T08:42:10;14.20;;;5.82;;
61385;SDS011;47256;18.904;-99.054;2023-04-06T08:44:50;19.02;;;6.85;;
61385;SDS011;47256;18.904;-99.054;2023-04-06T08:47:19;8.55;;;5.72;;
61385;SDS011;47256;18.904;-99.054;2023-04-06T08:49:46;15.13;;;6.07;;
61385;SDS011;47256;18.904;-99.054;2023-04-06T08:52:15;26.70;;;6.15;;
61385;SDS011;47256;18.904;-99.054;2023-04-06T08:54:45;14.07;;;5.85;;
61385;SDS011;47256;18.904;-99.054;2023-04-06T08:57:12;12.98;;;6.18;;
61385;SDS011;47256;18.904;-99.054;2023-04-06T08:59:39;17.67;;;7.10;;
61385;SDS011;47256;18.904;-99.054;2023-04-06T09:02:07;22.05;;;6.78;;
61385;SDS011;47256;18.904;-99.054;2023-04-06T09:04:43;14.45;;;6.47;;
61385;SDS011;47256;18.904;-99.054;2023-04-06T09:07:16;10.75;;;5.85;;
61385;SDS011;47256;18.904;-99.054;2023-04-06T09:09:43;11.48;;;6.93;;
61385;SDS011;47256;18.904;-99.054;2023-04-06T09:12:29;15.65;;;6.03;;
61385;SDS011;47256;18.904;-99.054;2023-04-06T09:14:58;12.57;;;6.25;;
61385;SDS011;47256;18.904;-99.054;2023-04-06T09:17:30;14.40;;;6.85;;
61385;SDS011;47256;18.904;-99.054;2023-04-06T09:20:00;20.95;;;7.45;;
61385;SDS011;47256;18.904;-99.054;2023-04-06T09:22:35;20.75;;;7.55;;
61385;SDS011;47256;18.904;-99.054;2023-04-06T09:25:04;16.50;;;5.90;;
61385;SDS011;47256;18.904;-99.054;2023-04-06T09:30:04;22.70;;;7.15;;
61385;SDS011;47256;18.904;-99.054;2023-04-06T09:32:43;19.73;;;6.13;;
61385;SDS011;47256;18.904;-99.054;2023-04-06T09:35:14;18.33;;;7.00;;
61385;SDS011;47256;18.904;-99.054;2023-04-06T09:37:42;9.77;;;6.35;;
61385;SDS011;47256;18.904;-99.054;2023-04-06T09:40:11;13.57;;;6.65;;
61385;SDS011;47256;18.904;-99.054;2023-04-06T09:42:42;14.48;;;6.35;;
61385;SDS011;47256;18.904;-99.054;2023-04-06T09:45:19;44.00;;;7.15;;
61385;SDS011;47256;18.904;-99.054;2023-04-06T09:47:47;25.02;;;7.75;;
61385;SDS011;47256;18.904;-99.054;2023-04-06T09:50:16;48.40;;;8.75;;
61385;SDS011;47256;18.904;-99.054;2023-04-06T09:52:48;13.07;;;7.47;;
61385;SDS011;47256;18.904;-99.054;2023-04-06T09:55:25;39.88;;;9.05;;
61385;SDS011;47256;18.904;-99.054;2023-04-06T09:58:05;21.85;;;7.28;;
61385;SDS011;47256;18.904;-99.054;2023-04-06T10:00:58;11.20;;;6.20;;
61385;SDS011;47256;18.904;-99.054;2023-04-06T10:06:17;13.68;;;6.05;;
61385;SDS011;47256;18.904;-99.054;2023-04-06T10:08:48;19.25;;;6.40;;
61385;SDS011;47256;18.904;-99.054;2023-04-06T10:11:20;17.00;;;6.68;;
61385;SDS011;47256;18.904;-99.054;2023-04-06T10:13:48;13.95;;;5.80;;
61385;SDS011;47256;18.904;-99.054;2023-04-06T10:16:17;11.75;;;6.38;;
61385;SDS011;47256;18.904;-99.054;2023-04-06T10:18:46;19.63;;;6.05;;
61385;SDS011;47256;18.904;-99.054;2023-04-06T10:21:20;15.90;;;6.65;;
61385;SDS011;47256;18.904;-99.054;2023-04-06T10:23:52;11.98;;;4.90;;
61385;SDS011;47256;18.904;-99.054;2023-04-06T10:26:24;13.38;;;6.40;;
61385;SDS011;47256;18.904;-99.054;2023-04-06T10:28:52;23.80;;;6.78;;
61385;SDS011;47256;18.904;-99.054;2023-04-06T10:31:27;12.20;;;5.88;;
61385;SDS011;47256;18.904;-99.054;2023-04-06T10:33:56;11.57;;;4.75;;
61385;SDS011;47256;18.904;-99.054;2023-04-06T10:36:42;12.73;;;5.90;;
61385;SDS011;47256;18.904;-99.054;2023-04-06T10:39:09;19.10;;;6.43;;
61385;SDS011;47256;18.904;-99.054;2023-04-06T10:41:44;20.17;;;7.53;;
61385;SDS011;47256;18.904;-99.054;2023-04-06T10:44:19;8.75;;;5.75;;
61385;SDS011;47256;18.904;-99.054;2023-04-06T10:47:00;13.60;;;6.25;;
61385;SDS011;47256;18.904;-99.054;2023-04-06T10:49:27;12.82;;;6.07;;
61385;SDS011;47256;18.904;-99.054;2023-04-06T10:51:55;39.47;;;10.48;;
61385;SDS011;47256;18.904;-99.054;2023-04-06T10:54:23;31.42;;;8.65;;
61385;SDS011;47256;18.904;-99.054;2023-04-06T10:56:52;18.38;;;7.55;;
61385;SDS011;47256;18.904;-99.054;2023-04-06T10:59:20;25.88;;;7.70;;
61385;SDS011;47256;18.904;-99.054;2023-04-06T11:01:47;22.20;;;8.40;;
61385;SDS011;47256;18.904;-99.054;2023-04-06T11:04:20;29.40;;;8.95;;
61385;SDS011;47256;18.904;-99.054;2023-04-06T11:06:49;28.00;;;8.77;;
61385;SDS011;47256;18.904;-99.054;2023-04-06T11:09:26;28.38;;;8.40;;
61385;SDS011;47256;18.904;-99.054;2023-04-06T11:11:56;42.05;;;8.85;;
61385;SDS011;47256;18.904;-99.054;2023-04-06T11:14:23;41.40;;;7.93;;
61385;SDS011;47256;18.904;-99.054;2023-04-06T11:16:52;41.05;;;9.90;;
61385;SDS011;47256;18.904;-99.054;2023-04-06T11:19:19;34.72;;;9.85;;
61385;SDS011;47256;18.904;-99.054;2023-04-06T11:21:47;22.63;;;8.55;;
61385;SDS011;47256;18.904;-99.054;2023-04-06T11:24:16;33.90;;;8.23;;
61385;SDS011;47256;18.904;-99.054;2023-04-06T11:26:50;28.83;;;8.43;;
61385;SDS011;47256;18.904;-99.054;2023-04-06T11:29:30;74.70;;;12.93;;
61385;SDS011;47256;18.904;-99.054;2023-04-06T11:32:04;27.02;;;9.65;;
61385;SDS011;47256;18.904;-99.054;2023-04-06T11:34:34;27.83;;;7.75;;
61385;SDS011;47256;18.904;-99.054;2023-04-06T11:37:03;20.08;;;8.38;;
61385;SDS011;47256;18.904;-99.054;2023-04-06T11:39:38;22.33;;;8.13;;
61385;SDS011;47256;18.904;-99.054;2023-04-06T11:42:24;19.15;;;8.27;;
61385;SDS011;47256;18.904;-99.054;2023-04-06T11:44:59;17.75;;;7.28;;
61385;SDS011;47256;18.904;-99.054;2023-04-06T11:47:33;15.77;;;5.88;;
61385;SDS011;47256;18.904;-99.054;2023-04-06T11:50:12;9.70;;;6.15;;
61385;SDS011;47256;18.904;-99.054;2023-04-06T11:52:41;15.63;;;5.93;;
61385;SDS011;47256;18.904;-99.054;2023-04-06T11:55:12;19.58;;;6.70;;
61385;SDS011;47256;18.904;-99.054;2023-04-06T11:57:44;31.65;;;8.55;;
61385;SDS011;47256;18.904;-99.054;2023-04-06T12:00:12;28.45;;;8.15;;
61385;SDS011;47256;18.904;-99.054;2023-04-06T12:02:39;32.58;;;8.02;;
61385;SDS011;47256;18.904;-99.054;2023-04-06T12:05:11;22.67;;;6.60;;
61385;SDS011;47256;18.904;-99.054;2023-04-06T12:07:38;29.88;;;7.32;;
61385;SDS011;47256;18.904;-99.054;2023-04-06T12:10:06;11.85;;;7.00;;
61385;SDS011;47256;18.904;-99.054;2023-04-06T12:12:33;15.18;;;6.72;;
61385;SDS011;47256;18.904;-99.054;2023-04-06T12:15:01;14.90;;;6.30;;
61385;SDS011;47256;18.904;-99.054;2023-04-06T12:17:28;15.73;;;6.95;;
61385;SDS011;47256;18.904;-99.054;2023-04-06T12:19:55;29.92;;;7.40;;
61385;SDS011;47256;18.904;-99.054;2023-04-06T12:22:23;10.23;;;6.05;;
61385;SDS011;47256;18.904;-99.054;2023-04-06T12:24:51;13.77;;;5.95;;
61385;SDS011;47256;18.904;-99.054;2023-04-06T12:27:18;20.60;;;6.90;;
61385;SDS011;47256;18.904;-99.054;2023-04-06T12:29:46;26.95;;;6.28;;
61385;SDS011;47256;18.904;-99.054;2023-04-06T12:32:13;10.38;;;5.40;;
61385;SDS011;47256;18.904;-99.054;2023-04-06T12:34:41;16.27;;;5.75;;
61385;SDS011;47256;18.904;-99.054;2023-04-06T12:37:08;14.02;;;6.93;;
61385;SDS011;47256;18.904;-99.054;2023-04-06T12:39:35;19.50;;;5.60;;
61385;SDS011;47256;18.904;-99.054;2023-04-06T12:42:02;13.43;;;6.70;;
61385;SDS011;47256;18.904;-99.054;2023-04-06T12:44:30;11.60;;;5.10;;
61385;SDS011;47256;18.904;-99.054;2023-04-06T12:46:57;10.57;;;5.78;;
61385;SDS011;47256;18.904;-99.054;2023-04-06T12:49:25;15.93;;;5.65;;
61385;SDS011;47256;18.904;-99.054;2023-04-06T12:51:52;16.65;;;5.93;;
61385;SDS011;47256;18.904;-99.054;2023-04-06T12:54:20;13.88;;;5.63;;
61385;SDS011;47256;18.904;-99.054;2023-04-06T12:56:47;18.02;;;6.72;;
61385;SDS011;47256;18.904;-99.054;2023-04-06T12:59:14;14.40;;;6.70;;
61385;SDS011;47256;18.904;-99.054;2023-04-06T13:01:42;18.52;;;6.53;;
61385;SDS011;47256;18.904;-99.054;2023-04-06T13:04:10;12.25;;;5.70;;
61385;SDS011;47256;18.904;-99.054;2023-04-06T13:06:43;10.73;;;5.60;;
61385;SDS011;47256;18.904;-99.054;2023-04-06T13:09:10;18.88;;;5.35;;
61385;SDS011;47256;18.904;-99.054;2023-04-06T13:11:37;41.17;;;7.32;;
61385;SDS011;47256;18.904;-99.054;2023-04-06T13:14:05;21.83;;;7.70;;
61385;SDS011;47256;18.904;-99.054;2023-04-06T13:16:33;13.23;;;5.80;;
61385;SDS011;47256;18.904;-99.054;2023-04-06T13:19:00;17.70;;;7.18;;
61385;SDS011;47256;18.904;-99.054;2023-04-06T13:21:28;25.45;;;6.95;;
61385;SDS011;47256;18.904;-99.054;2023-04-06T13:23:57;16.20;;;6.60;;
61385;SDS011;47256;18.904;-99.054;2023-04-06T13:26:24;22.90;;;6.90;;
61385;SDS011;47256;18.904;-99.054;2023-04-06T13:28:52;21.27;;;6.95;;
61385;SDS011;47256;18.904;-99.054;2023-04-06T13:31:19;9.85;;;6.20;;
61385;SDS011;47256;18.904;-99.054;2023-04-06T13:33:46;34.00;;;7.63;;
61385;SDS011;47256;18.904;-99.054;2023-04-06T13:36:14;15.82;;;6.97;;
61385;SDS011;47256;18.904;-99.054;2023-04-06T13:38:42;17.58;;;7.00;;
61385;SDS011;47256;18.904;-99.054;2023-04-06T13:41:09;31.42;;;8.27;;
61385;SDS011;47256;18.904;-99.054;2023-04-06T13:43:36;31.80;;;7.95;;
61385;SDS011;47256;18.904;-99.054;2023-04-06T13:46:03;15.85;;;6.05;;
61385;SDS011;47256;18.904;-99.054;2023-04-06T13:48:31;15.80;;;6.15;;
61385;SDS011;47256;18.904;-99.054;2023-04-06T13:51:04;29.20;;;12.07;;
61385;SDS011;47256;18.904;-99.054;2023-04-06T13:53:35;21.08;;;7.05;;
61385;SDS011;47256;18.904;-99.054;2023-04-06T13:56:03;15.50;;;9.02;;
61385;SDS011;47256;18.904;-99.054;2023-04-06T13:58:31;14.25;;;6.93;;
61385;SDS011;47256;18.904;-99.054;2023-04-06T14:01:05;13.18;;;8.02;;
61385;SDS011;47256;18.904;-99.054;2023-04-06T14:03:35;34.78;;;8.82;;
61385;SDS011;47256;18.904;-99.054;2023-04-06T14:06:12;12.18;;;6.88;;
61385;SDS011;47256;18.904;-99.054;2023-04-06T14:11:12;11.88;;;6.45;;
61385;SDS011;47256;18.904;-99.054;2023-04-06T14:13:41;19.13;;;7.22;;
61385;SDS011;47256;18.904;-99.054;2023-04-06T14:16:08;19.75;;;9.05;;
61385;SDS011;47256;18.904;-99.054;2023-04-06T14:18:36;13.25;;;7.45;;
61385;SDS011;47256;18.904;-99.054;2023-04-06T14:21:03;14.85;;;7.43;;
61385;SDS011;47256;18.904;-99.054;2023-04-06T14:23:31;22.05;;;7.35;;
61385;SDS011;47256;18.904;-99.054;2023-04-06T14:26:06;24.95;;;8.30;;
61385;SDS011;47256;18.904;-99.054;2023-04-06T14:28:34;19.77;;;8.25;;
61385;SDS011;47256;18.904;-99.054;2023-04-06T14:31:02;27.65;;;9.30;;
61385;SDS011;47256;18.904;-99.054;2023-04-06T14:33:37;36.75;;;10.15;;